Silver Creek, Nebraska
Current Conditions -  °F | °C
As of 3:35 AM on Friday 28 Nov 2014 (Local Time) from KOLU Reporting Station
Clear Clear  
Wind Chill: 19°   Ceiling: Unl
Heat Index: 27°   Visibility: 10mi
Dew Point: 18°   Wind: 7mph
Humidity: 69%   Direction: 200°SSW
Pressure: 29.95"   Gusts: NA
Location:  41.31°N, 97.66°W
Report Text: KOLU 280935Z AUTO 20006KT 10SM CLR M03/M08 A2995 RMK AO1
Loading
Personal Weather Stations






























Interactive Weather Map New forecast layout! Learn more

10-Day Weather Forecast

Advertisements
Track Severe Weather on mobile